createdAt,value
2018-09-20T00:01:01.320Z,101589.32
2018-09-20T00:03:30.479Z,101588.45
2018-09-20T00:05:59.579Z,101583.44
2018-09-20T00:08:28.752Z,101587.90
2018-09-20T00:10:57.916Z,101589.32
2018-09-20T00:13:27.049Z,101595.69
2018-09-20T00:15:56.411Z,101589.42
2018-09-20T00:18:25.585Z,101593.36
2018-09-20T00:20:54.663Z,101592.02
2018-09-20T00:23:23.740Z,101591.16
2018-09-20T00:25:52.867Z,101586.80
2018-09-20T00:28:21.935Z,101586.31
2018-09-20T00:30:51.123Z,101582.75
2018-09-20T00:33:20.339Z,101584.11
2018-09-20T00:35:49.445Z,101576.39
2018-09-20T00:38:18.557Z,101584.89
2018-09-20T00:40:47.851Z,101575.04
2018-09-20T00:43:16.949Z,101568.30
2018-09-20T00:45:45.996Z,101568.41
2018-09-20T00:48:15.106Z,101564.25
2018-09-20T00:50:44.207Z,101567.05
2018-09-20T00:53:13.287Z,101563.80
2018-09-20T00:55:42.406Z,101566.50
2018-09-20T00:58:11.568Z,101569.64
2018-09-20T01:00:40.815Z,101566.56
2018-09-20T01:03:09.901Z,101569.27
2018-09-20T01:05:39.083Z,101572.83
2018-09-20T01:08:08.359Z,101569.83
2018-09-20T01:10:37.454Z,101568.96
2018-09-20T01:13:06.591Z,101567.05
2018-09-20T01:15:35.656Z,101570.13
2018-09-20T01:18:04.781Z,101565.59
2018-09-20T01:20:33.863Z,101571.00
2018-09-20T01:23:02.979Z,101568.30
2018-09-20T01:25:32.088Z,101569.19
2018-09-20T01:28:01.171Z,101570.62
2018-09-20T01:30:30.267Z,101571.89
2018-09-20T01:32:59.371Z,101569.75
2018-09-20T01:35:28.528Z,101565.78
2018-09-20T01:37:57.851Z,101567.92
2018-09-20T01:40:26.951Z,101560.31
2018-09-20T01:42:56.054Z,101561.66
2018-09-20T01:45:25.135Z,101566.09
2018-09-20T01:47:54.428Z,101563.49
2018-09-20T01:50:23.547Z,101562.03
2018-09-20T01:52:52.671Z,101564.66
2018-09-20T01:55:21.720Z,101566.56
2018-09-20T01:57:50.819Z,101563.95
2018-09-20T02:00:19.929Z,101567.12
2018-09-20T02:02:49.023Z,101567.54
2018-09-20T02:05:18.863Z,101573.31
2018-09-20T02:07:47.947Z,101573.31
2018-09-20T02:10:17.119Z,101575.15
2018-09-20T02:12:46.214Z,101580.92
2018-09-20T02:15:15.291Z,101576.57
2018-09-20T02:17:44.364Z,101579.37
2018-09-20T02:20:13.547Z,101582.14
2018-09-20T02:22:42.691Z,101576.75
2018-09-20T02:25:11.824Z,101581.28
2018-09-20T02:27:40.897Z,101579.14
2018-09-20T02:30:10.118Z,101582.70
2018-09-20T02:32:39.209Z,101584.47
2018-09-20T02:35:08.303Z,101581.36
2018-09-20T02:37:37.415Z,101586.75
2018-09-20T02:40:06.576Z,101577.80
2018-09-20T02:42:35.672Z,101576.83
2018-09-20T02:45:05.000Z,101577.31
2018-09-20T02:47:34.028Z,101572.70
2018-09-20T02:50:03.162Z,101572.52
2018-09-20T02:52:32.288Z,101568.66
2018-09-20T02:55:01.354Z,101568.17
2018-09-20T02:57:30.481Z,101567.30
2018-09-20T02:59:59.578Z,101568.09
2018-09-20T03:02:28.877Z,101564.23
2018-09-20T03:04:58.226Z,101566.93
2018-09-20T03:07:27.379Z,101562.47
2018-09-20T03:09:56.416Z,101561.12
2018-09-20T03:12:25.963Z,101561.53
2018-09-20T03:14:55.086Z,101564.61
2018-09-20T03:17:24.348Z,101560.26
2018-09-20T03:19:53.465Z,101562.77
2018-09-20T03:22:22.531Z,101560.26
2018-09-20T03:24:51.583Z,101564.23
2018-09-20T03:27:20.797Z,101566.44
2018-09-20T03:29:50.041Z,101563.82
2018-09-20T03:32:19.262Z,101563.82
2018-09-20T03:34:48.662Z,101553.59
2018-09-20T03:37:17.758Z,101557.63
2018-09-20T03:39:46.832Z,101558.53
2018-09-20T03:42:15.928Z,101554.48
2018-09-20T03:44:45.030Z,101551.00
2018-09-20T03:47:14.316Z,101546.84
2018-09-20T03:49:43.436Z,101544.56
2018-09-20T03:52:12.502Z,101541.45
2018-09-20T03:54:41.617Z,101547.56
2018-09-20T03:57:10.728Z,101544.08
2018-09-20T03:59:39.831Z,101541.30
2018-09-20T04:02:08.941Z,101542.23
2018-09-20T04:04:38.363Z,101538.61
2018-09-20T04:07:07.625Z,101547.15
2018-09-20T04:09:36.731Z,101542.23
2018-09-20T04:12:05.985Z,101538.68
2018-09-20T04:14:34.996Z,101539.16
2018-09-20T04:17:03.987Z,101540.03
2018-09-20T04:19:33.643Z,101539.06
2018-09-20T04:22:03.018Z,101539.16
2018-09-20T04:24:32.114Z,101531.07
2018-09-20T04:27:01.210Z,101528.86
2018-09-20T04:29:30.275Z,101530.10
2018-09-20T04:32:04.908Z,101535.98
2018-09-20T04:34:33.997Z,101532.80
2018-09-20T04:37:03.122Z,101534.70
2018-09-20T04:39:32.104Z,101534.70
2018-09-20T04:42:01.369Z,101532.91
2018-09-20T04:44:30.514Z,101538.30
2018-09-20T04:46:59.527Z,101533.84
2018-09-20T04:49:28.604Z,101537.81
2018-09-20T04:51:57.676Z,101536.95
2018-09-20T04:54:26.802Z,101532.42
2018-09-20T04:57:01.509Z,101537.41
2018-09-20T04:59:30.618Z,101534.81
2018-09-20T05:01:59.714Z,101530.66
2018-09-20T05:04:28.836Z,101528.45
2018-09-20T05:06:57.878Z,101524.89
2018-09-20T05:09:27.070Z,101526.62
2018-09-20T05:11:56.278Z,101527.03
2018-09-20T05:14:25.361Z,101528.94
2018-09-20T05:16:54.487Z,101529.80
2018-09-20T05:19:23.592Z,101529.31
2018-09-20T05:21:58.217Z,101525.75
2018-09-20T05:24:32.608Z,101516.42
2018-09-20T05:27:01.836Z,101518.52
2018-09-20T05:29:30.918Z,101518.63
2018-09-20T05:32:00.008Z,101518.52
2018-09-20T05:34:29.102Z,101530.20
2018-09-20T05:36:58.228Z,101524.33
2018-09-20T05:39:27.304Z,101520.36
2018-09-20T05:41:56.294Z,101525.27
2018-09-20T05:44:25.381Z,101525.67
2018-09-20T05:46:54.509Z,101527.03
2018-09-20T05:49:23.677Z,101528.86
2018-09-20T05:51:52.780Z,101530.20
2018-09-20T05:54:21.864Z,101529.73
2018-09-20T05:56:50.984Z,101519.42
2018-09-20T05:59:20.312Z,101519.42
2018-09-20T06:01:49.605Z,101520.77
2018-09-20T06:04:18.713Z,101526.16
2018-09-20T06:06:47.988Z,101522.12
2018-09-20T06:09:17.077Z,101519.42
2018-09-20T06:11:46.178Z,101523.36
2018-09-20T06:14:15.266Z,101522.98
2018-09-20T06:16:44.360Z,101524.70
2018-09-20T06:19:13.431Z,101524.70
2018-09-20T06:21:42.579Z,101519.80
2018-09-20T06:24:11.941Z,101520.17
2018-09-20T06:26:41.063Z,101519.72
2018-09-20T06:29:10.200Z,101520.59
2018-09-20T06:31:39.347Z,101527.81
2018-09-20T06:34:08.431Z,101515.19
2018-09-20T06:36:37.522Z,101519.54
2018-09-20T06:39:09.148Z,101522.42
2018-09-20T06:41:38.540Z,101525.01
2018-09-20T06:44:07.665Z,101529.54
2018-09-20T06:46:36.684Z,101522.42
2018-09-20T06:49:05.883Z,101531.68
2018-09-20T06:51:35.443Z,101535.72
2018-09-20T06:54:04.436Z,101528.57
2018-09-20T06:56:33.578Z,101520.48
2018-09-20T06:59:02.897Z,101523.17
2018-09-20T07:01:32.191Z,101522.72
2018-09-20T07:04:01.441Z,101533.41
2018-09-20T07:06:30.432Z,101536.59
2018-09-20T07:08:59.597Z,101531.57
2018-09-20T07:11:28.888Z,101532.05
2018-09-20T07:13:58.055Z,101540.56
2018-09-20T07:16:27.152Z,101536.52
2018-09-20T07:18:56.277Z,101539.67
2018-09-20T07:21:25.470Z,101529.77
2018-09-20T07:23:54.660Z,101521.19
2018-09-20T07:26:23.773Z,101526.48
2018-09-20T07:28:52.851Z,101525.92
2018-09-20T07:31:22.040Z,101512.43
2018-09-20T07:33:51.260Z,101518.23
2018-09-20T07:36:20.358Z,101519.58
2018-09-20T07:38:49.440Z,101518.13
2018-09-20T07:41:18.535Z,101519.41
2018-09-20T07:43:47.661Z,101517.56
2018-09-20T07:46:16.715Z,101520.67
2018-09-20T07:48:45.782Z,101522.88
2018-09-20T07:51:14.863Z,101534.92
2018-09-20T07:53:44.079Z,101534.84
2018-09-20T07:56:13.282Z,101533.01
2018-09-20T07:58:42.412Z,101525.33
2018-09-20T08:01:11.520Z,101522.14
2018-09-20T08:03:41.433Z,101527.91
2018-09-20T08:06:10.533Z,101517.23
2018-09-20T08:08:39.705Z,101520.23
2018-09-20T08:11:08.848Z,101517.05
2018-09-20T08:13:37.995Z,101519.63
2018-09-20T08:16:07.152Z,101524.95
2018-09-20T08:18:36.417Z,101526.30
2018-09-20T08:21:05.699Z,101518.99
2018-09-20T08:23:34.799Z,101510.41
2018-09-20T08:26:04.015Z,101529.68
2018-09-20T08:28:33.112Z,101517.53
2018-09-20T08:31:02.240Z,101523.83
2018-09-20T08:33:31.403Z,101524.20
2018-09-20T08:36:00.517Z,101522.78
2018-09-20T08:38:29.707Z,101522.78
2018-09-20T08:40:58.897Z,101514.69
2018-09-20T08:43:27.963Z,101513.63
2018-09-20T08:45:57.080Z,101520.27
2018-09-20T08:48:26.384Z,101521.62
2018-09-20T08:50:55.511Z,101520.27
2018-09-20T08:53:24.784Z,101511.61
2018-09-20T08:55:53.882Z,101518.77
2018-09-20T08:58:22.982Z,101521.47
2018-09-20T09:00:52.284Z,101510.67
2018-09-20T09:03:21.440Z,101512.88
2018-09-20T09:05:50.573Z,101514.61
2018-09-20T09:08:19.568Z,101507.97
2018-09-20T09:10:48.656Z,101502.57
2018-09-20T09:13:17.731Z,101505.84
2018-09-20T09:15:46.861Z,101510.75
2018-09-20T09:18:15.903Z,101514.01
2018-09-20T09:20:45.223Z,101511.31
2018-09-20T09:23:14.337Z,101511.31
2018-09-20T09:25:43.522Z,101507.75
2018-09-20T09:28:12.584Z,101501.97
2018-09-20T09:30:41.729Z,101503.33
2018-09-20T09:33:10.815Z,101511.02
2018-09-20T09:35:39.875Z,101515.47
2018-09-20T09:38:08.846Z,101515.47
2018-09-20T09:40:37.996Z,101510.94
2018-09-20T09:43:07.119Z,101521.81
2018-09-20T09:45:36.412Z,101528.63
2018-09-20T09:48:05.530Z,101512.92
2018-09-20T09:50:34.758Z,101511.57
2018-09-20T09:53:03.823Z,101504.34
2018-09-20T09:55:32.907Z,101499.99
2018-09-20T09:58:02.106Z,101495.49
2018-09-20T10:00:35.897Z,101502.23
2018-09-20T10:03:04.987Z,101512.63
2018-09-20T10:05:34.039Z,101514.84
2018-09-20T10:08:03.163Z,101514.08
2018-09-20T10:10:32.231Z,101514.53
2018-09-20T10:13:01.385Z,101518.50
2018-09-20T10:15:30.481Z,101504.05
2018-09-20T10:17:59.677Z,101504.94
2018-09-20T10:20:28.773Z,101509.44
2018-09-20T10:22:57.869Z,101508.50
2018-09-20T10:25:26.943Z,101508.88
2018-09-20T10:27:56.068Z,101502.98
2018-09-20T10:30:25.353Z,101500.78
2018-09-20T10:32:54.451Z,101493.66
2018-09-20T10:35:23.619Z,101497.70
2018-09-20T10:37:52.753Z,101491.81
2018-09-20T10:40:21.791Z,101488.63
2018-09-20T10:42:50.911Z,101476.97
2018-09-20T10:45:19.950Z,101485.08
2018-09-20T10:47:49.004Z,101484.09
2018-09-20T10:50:18.122Z,101483.64
2018-09-20T10:52:47.222Z,101482.00
2018-09-20T10:55:16.322Z,101484.21
2018-09-20T10:57:45.400Z,101478.33
2018-09-20T11:00:14.483Z,101481.51
2018-09-20T11:02:43.608Z,101470.72
2018-09-20T11:05:12.705Z,101470.72
2018-09-20T11:07:41.828Z,101459.52
2018-09-20T11:10:10.927Z,101450.48
2018-09-20T11:12:40.075Z,101448.72
2018-09-20T11:15:09.176Z,101449.61
2018-09-20T11:17:38.297Z,101446.91
2018-09-20T11:20:07.455Z,101467.16
2018-09-20T11:22:36.533Z,101465.20
2018-09-20T11:25:05.673Z,101466.56
2018-09-20T11:27:34.880Z,101466.56
2018-09-20T11:30:03.944Z,101461.65
2018-09-20T11:32:33.062Z,101462.99
2018-09-20T11:35:02.176Z,101465.61
2018-09-20T11:37:31.338Z,101466.10
2018-09-20T11:40:00.424Z,101474.66
2018-09-20T11:42:29.573Z,101473.79
2018-09-20T11:44:58.656Z,101467.05
2018-09-20T11:47:27.717Z,101466.67
2018-09-20T11:49:56.827Z,101458.57
2018-09-20T11:52:25.887Z,101463.86
2018-09-20T11:54:55.120Z,101460.30
2018-09-20T11:57:24.226Z,101458.01
2018-09-20T11:59:53.328Z,101460.22
2018-09-20T12:02:22.728Z,101449.91
2018-09-20T12:04:51.827Z,101453.39
2018-09-20T12:07:20.946Z,101445.38
2018-09-20T12:09:50.025Z,101427.34
2018-09-20T12:12:19.125Z,101433.61
2018-09-20T12:14:48.327Z,101434.95
2018-09-20T12:17:17.552Z,101438.55
2018-09-20T12:19:47.705Z,101436.71
2018-09-20T12:22:16.956Z,101437.20
2018-09-20T12:24:46.646Z,101427.75
2018-09-20T12:27:15.704Z,101420.03
2018-09-20T12:29:44.824Z,101418.12
2018-09-20T12:32:13.915Z,101421.76
2018-09-20T12:34:43.335Z,101422.35
2018-09-20T12:37:12.430Z,101415.98
2018-09-20T12:39:41.491Z,101410.21
2018-09-20T12:42:10.604Z,101408.08
2018-09-20T12:44:39.700Z,101413.36
2018-09-20T12:47:08.799Z,101404.41
2018-09-20T12:49:37.902Z,101406.16
2018-09-20T12:52:06.991Z,101400.77
2018-09-20T12:54:36.137Z,101390.42
2018-09-20T12:57:05.675Z,101389.08
2018-09-20T12:59:34.789Z,101384.57
2018-09-20T13:02:03.959Z,101391.20
2018-09-20T13:04:33.191Z,101382.33
2018-09-20T13:07:02.257Z,101380.98
2018-09-20T13:09:31.333Z,101378.20
2018-09-20T13:12:00.416Z,101363.16
2018-09-20T13:14:29.492Z,101353.52
2018-09-20T13:16:58.681Z,101347.55
2018-09-20T13:19:27.755Z,101356.34
2018-09-20T13:21:56.848Z,101339.95
2018-09-20T13:24:25.959Z,101325.96
2018-09-20T13:26:55.060Z,101333.86
2018-09-20T13:29:24.158Z,101328.75
2018-09-20T13:31:53.251Z,101331.32
2018-09-20T13:34:22.520Z,101333.83
2018-09-20T13:36:51.647Z,101326.50
2018-09-20T13:39:20.731Z,101323.19
2018-09-20T13:41:50.055Z,101308.34
2018-09-20T13:44:19.239Z,101311.73
2018-09-20T13:46:48.316Z,101306.91
2018-09-20T13:49:17.443Z,101318.20
2018-09-20T13:51:46.507Z,101316.07
2018-09-20T13:54:15.631Z,101306.25
2018-09-20T13:56:44.699Z,101298.31
2018-09-20T13:59:13.821Z,101301.91
2018-09-20T14:01:42.910Z,101297.45
2018-09-20T14:04:11.987Z,101298.31
2018-09-20T14:06:41.079Z,101294.38
2018-09-20T14:09:11.591Z,101290.87
2018-09-20T14:11:40.980Z,101287.23
2018-09-20T14:14:10.120Z,101285.96
2018-09-20T14:16:39.233Z,101271.20
2018-09-20T14:19:08.347Z,101261.75
2018-09-20T14:21:37.602Z,101264.45
2018-09-20T14:24:06.839Z,101261.27
2018-09-20T14:26:36.021Z,101252.22
2018-09-20T14:29:05.432Z,101252.30
2018-09-20T14:31:35.552Z,101250.09
2018-09-20T14:34:04.630Z,101232.55
2018-09-20T14:36:33.756Z,101244.32
2018-09-20T14:39:03.554Z,101242.48
2018-09-20T14:41:32.652Z,101242.48
2018-09-20T14:44:01.687Z,101242.97
2018-09-20T14:46:30.788Z,101230.82
2018-09-20T14:48:59.922Z,101233.12
2018-09-20T14:51:29.018Z,101225.51
2018-09-20T14:53:58.113Z,101225.42
2018-09-20T14:56:27.185Z,101228.58
2018-09-20T14:58:56.425Z,101217.78
2018-09-20T15:01:25.497Z,101220.39
2018-09-20T15:03:54.795Z,101211.03
2018-09-20T15:06:23.956Z,101200.81
2018-09-20T15:08:53.095Z,101209.31
2018-09-20T15:11:22.172Z,101203.91
2018-09-20T15:13:51.308Z,101197.53
2018-09-20T15:16:20.404Z,101210.58
2018-09-20T15:18:49.467Z,101206.53
2018-09-20T15:21:18.685Z,101198.88
2018-09-20T15:23:47.743Z,101197.16
2018-09-20T15:26:16.909Z,101198.52
2018-09-20T15:28:46.089Z,101198.03
2018-09-20T15:31:15.187Z,101189.92
2018-09-20T15:33:44.280Z,101186.73
2018-09-20T15:36:13.366Z,101180.20
2018-09-20T15:38:42.453Z,101182.81
2018-09-20T15:41:11.752Z,101181.55
2018-09-20T15:43:40.856Z,101172.37
2018-09-20T15:46:09.964Z,101175.48
2018-09-20T15:48:39.040Z,101174.98
2018-09-20T15:51:08.449Z,101166.89
2018-09-20T15:53:37.587Z,101159.37
2018-09-20T15:56:06.670Z,101159.86
2018-09-20T15:58:35.744Z,101155.81
2018-09-20T16:01:04.845Z,101159.66
2018-09-20T16:03:33.943Z,101156.47
2018-09-20T16:06:03.068Z,101156.47
2018-09-20T16:08:32.374Z,101157.33
2018-09-20T16:11:01.437Z,101154.75
2018-09-20T16:13:30.513Z,101157.94
2018-09-20T16:15:59.659Z,101152.99
2018-09-20T16:18:28.811Z,101148.86
2018-09-20T16:20:57.927Z,101148.48
2018-09-20T16:23:27.001Z,101149.34
2018-09-20T16:25:56.422Z,101145.78
2018-09-20T16:28:36.593Z,101149.84
2018-09-20T16:31:14.066Z,101146.16
2018-09-20T16:35:59.379Z,101142.02
2018-09-20T16:38:35.286Z,101136.80
2018-09-20T16:41:06.303Z,101131.52
2018-09-20T16:43:35.371Z,101123.78
2018-09-20T16:46:04.654Z,101124.64
2018-09-20T16:48:33.723Z,101125.05
2018-09-20T16:51:02.947Z,101123.30
2018-09-20T16:53:32.144Z,101127.75
2018-09-20T16:56:01.317Z,101116.95
2018-09-20T16:58:30.502Z,101116.55
2018-09-20T17:00:59.636Z,101115.20
2018-09-20T17:03:28.702Z,101108.45
2018-09-20T17:05:57.887Z,101109.80
2018-09-20T17:08:27.049Z,101099.89
2018-09-20T17:10:56.329Z,101102.10
2018-09-20T17:13:25.405Z,101085.50
2018-09-20T17:15:54.522Z,101075.59
2018-09-20T17:18:23.716Z,101082.80
2018-09-20T17:20:52.918Z,101075.59
2018-09-20T17:23:22.122Z,101072.01
2018-09-20T17:25:51.279Z,101065.08
2018-09-20T17:28:20.485Z,101067.48
2018-09-20T17:30:49.858Z,101061.41
2018-09-20T17:33:18.999Z,101051.38
2018-09-20T17:35:48.683Z,101050.58
2018-09-20T17:38:19.167Z,101043.70
2018-09-20T17:40:50.898Z,101045.45
2018-09-20T17:43:23.167Z,101036.38
2018-09-20T17:45:52.259Z,101036.28
2018-09-20T17:48:21.355Z,101034.93
2018-09-20T17:50:50.899Z,101027.59
2018-09-20T17:53:20.599Z,101031.64
2018-09-20T17:55:50.385Z,101024.89
2018-09-20T17:58:20.291Z,101024.28
2018-09-20T18:00:49.437Z,101020.14
2018-09-20T18:03:18.559Z,101015.10
2018-09-20T18:05:47.838Z,101015.59
2018-09-20T18:08:17.028Z,101009.61
2018-09-20T18:10:46.242Z,101018.08
2018-09-20T18:13:15.405Z,101017.13
2018-09-20T18:15:44.614Z,101018.08
2018-09-20T18:18:14.174Z,101017.49
2018-09-20T18:20:43.860Z,101009.78
2018-09-20T18:23:13.528Z,101007.82
2018-09-20T18:25:43.052Z,100995.39
2018-09-20T18:28:12.458Z,100993.36
2018-09-20T18:30:41.951Z,100984.12
2018-09-20T18:33:11.331Z,100977.16
2018-09-20T18:35:40.643Z,100974.05
2018-09-20T18:38:09.716Z,100963.66
2018-09-20T18:40:38.861Z,100956.80
2018-09-20T18:43:08.006Z,100958.52
2018-09-20T18:45:37.127Z,100958.52
2018-09-20T18:48:06.224Z,100957.93
2018-09-20T18:50:35.320Z,100951.54
2018-09-20T18:53:04.484Z,100940.25
2018-09-20T18:55:33.713Z,100942.95
2018-09-20T18:58:03.028Z,100943.34
2018-09-20T19:00:32.109Z,100930.70
2018-09-20T19:03:01.188Z,100916.33
2018-09-20T19:05:30.283Z,100914.98
2018-09-20T19:07:59.386Z,100907.23
2018-09-20T19:10:28.514Z,100913.99
2018-09-20T19:12:57.692Z,100910.70
2018-09-20T19:15:27.009Z,100903.59
2018-09-20T19:17:56.178Z,100901.84
2018-09-20T19:20:25.397Z,100894.72
2018-09-20T19:22:54.484Z,100888.83
2018-09-20T19:25:23.572Z,100888.46
2018-09-20T19:27:52.653Z,100879.38
2018-09-20T19:30:21.786Z,100871.63
2018-09-20T19:32:50.862Z,100873.88
2018-09-20T19:35:20.142Z,100865.14
2018-09-20T19:37:49.370Z,100860.36
2018-09-20T19:40:18.546Z,100858.62
2018-09-20T19:42:47.662Z,100857.17
2018-09-20T19:45:17.023Z,100863.92
2018-09-20T19:47:46.301Z,100864.78
2018-09-20T19:50:15.474Z,100857.66
2018-09-20T19:52:44.648Z,100851.27
2018-09-20T19:55:13.866Z,100844.52
2018-09-20T19:57:42.957Z,100843.66
2018-09-20T20:00:12.044Z,100840.83
2018-09-20T20:02:41.162Z,100835.92
2018-09-20T20:05:10.270Z,100838.26
2018-09-20T20:07:39.469Z,100825.02
2018-09-20T20:10:08.636Z,100824.63
2018-09-20T20:12:37.819Z,100825.38
2018-09-20T20:15:06.936Z,100823.17
2018-09-20T20:17:36.025Z,100819.02
2018-09-20T20:20:05.220Z,100813.22
2018-09-20T20:22:34.403Z,100810.92
2018-09-20T20:25:03.526Z,100807.59
2018-09-20T20:27:32.710Z,100803.34
2018-09-20T20:30:01.839Z,100798.79
2018-09-20T20:32:31.129Z,100792.63
2018-09-20T20:35:00.488Z,100789.77
2018-09-20T20:37:29.619Z,100783.14
2018-09-20T20:39:58.712Z,100773.43
2018-09-20T20:42:27.895Z,100772.17
2018-09-20T20:44:57.031Z,100764.20
2018-09-20T20:47:26.294Z,100760.61
2018-09-20T20:49:55.506Z,100754.85
2018-09-20T20:52:59.259Z,100738.64
2018-09-20T20:55:28.649Z,100730.64
2018-09-20T20:57:57.815Z,100730.77
2018-09-20T21:00:26.901Z,100726.82
2018-09-20T21:02:56.109Z,100714.17
2018-09-20T21:05:25.175Z,100717.37
2018-09-20T21:07:54.824Z,100717.86
2018-09-20T21:10:23.888Z,100702.25
2018-09-20T21:12:53.008Z,100696.95
2018-09-20T21:15:22.072Z,100690.20
2018-09-20T21:17:51.167Z,100690.20
2018-09-20T21:20:20.259Z,100698.30
2018-09-20T21:22:49.325Z,100690.34
2018-09-20T21:25:18.476Z,100683.09
2018-09-20T21:27:47.607Z,100692.64
2018-09-20T21:30:16.823Z,100690.93
2018-09-20T21:32:45.877Z,100680.23
2018-09-20T21:35:15.139Z,100680.72
2018-09-20T21:37:44.382Z,100672.13
2018-09-20T21:40:13.577Z,100672.62
2018-09-20T21:42:42.672Z,100663.66
2018-09-20T21:45:11.727Z,100660.47
2018-09-20T21:47:40.850Z,100666.37
2018-09-20T21:50:09.967Z,100655.30
2018-09-20T21:52:39.022Z,100653.85
2018-09-20T21:55:08.156Z,100646.35
2018-09-20T21:57:37.228Z,100636.50
2018-09-20T22:00:07.669Z,100639.20
2018-09-20T22:02:42.124Z,100639.10
2018-09-20T22:05:11.189Z,100642.80
2018-09-20T22:07:40.282Z,100646.84
2018-09-20T22:10:09.383Z,100634.44
2018-09-20T22:12:38.476Z,100625.34
2018-09-20T22:15:11.702Z,100625.34
2018-09-20T22:17:40.855Z,100630.64
2018-09-20T22:20:10.325Z,100626.20
2018-09-20T22:22:39.376Z,100618.49
2018-09-20T22:25:08.437Z,100605.95
2018-09-20T22:27:37.566Z,100608.78
2018-09-20T22:30:06.833Z,100611.48
2018-09-20T22:32:35.904Z,100607.89
2018-09-20T22:35:05.463Z,100608.78
2018-09-20T22:37:34.866Z,100597.09
2018-09-20T22:40:04.620Z,100597.09
2018-09-20T22:42:33.751Z,100589.88
2018-09-20T22:45:03.387Z,100583.59
2018-09-20T22:47:33.128Z,100587.18
2018-09-20T22:50:02.277Z,100578.20
2018-09-20T22:52:31.466Z,100574.14
2018-09-20T22:55:00.559Z,100564.34
2018-09-20T22:57:29.628Z,100561.63
2018-09-20T22:59:58.774Z,100548.63
2018-09-20T23:02:27.861Z,100547.28
2018-09-20T23:04:56.995Z,100548.13
2018-09-20T23:07:26.126Z,100546.42
2018-09-20T23:09:55.673Z,100550.48
2018-09-20T23:12:24.880Z,100538.79
2018-09-20T23:14:53.919Z,100532.53
2018-09-20T23:17:23.059Z,100523.48
2018-09-20T23:19:52.135Z,100519.42
2018-09-20T23:22:21.221Z,100519.03
2018-09-20T23:24:50.347Z,100506.39
2018-09-20T23:27:19.429Z,100496.94
2018-09-20T23:29:48.542Z,100500.52
2018-09-20T23:32:17.595Z,100498.29
2018-09-20T23:34:46.701Z,100489.83
2018-09-20T23:37:15.791Z,100483.58
2018-09-20T23:39:44.835Z,100483.94
2018-09-20T23:42:13.880Z,100477.19
2018-09-20T23:44:42.943Z,100480.38
2018-09-20T23:47:12.064Z,100470.44
2018-09-20T23:49:41.185Z,100466.03
2018-09-20T23:52:10.283Z,100466.49
2018-09-20T23:54:39.381Z,100462.84
2018-09-20T23:57:08.777Z,100461.98
2018-09-20T23:59:37.875Z,100467.84
